createdAt,value
2019-01-27T00:01:39.199Z,5.98
2019-01-27T00:04:10.808Z,5.99
2019-01-27T00:06:43.116Z,5.86
2019-01-27T00:09:15.228Z,5.86
2019-01-27T00:11:52.731Z,5.84
2019-01-27T00:14:25.687Z,5.75
2019-01-27T00:16:58.666Z,5.75
2019-01-27T00:19:31.653Z,5.78
2019-01-27T00:22:03.960Z,5.74
2019-01-27T00:24:36.860Z,5.95
2019-01-27T00:27:11.536Z,5.93
2019-01-27T00:29:46.260Z,5.83
2019-01-27T00:32:19.314Z,5.84
2019-01-27T00:34:53.494Z,5.84
2019-01-27T00:37:25.246Z,5.98
2019-01-27T00:39:57.308Z,5.99
2019-01-27T00:42:29.526Z,6.03
2019-01-27T00:45:01.852Z,6.06
2019-01-27T00:47:34.389Z,6.01
2019-01-27T00:50:07.052Z,6.04
2019-01-27T00:52:40.330Z,6.01
2019-01-27T00:55:15.195Z,6.09
2019-01-27T00:57:47.853Z,6.10
2019-01-27T01:00:23.622Z,5.95
2019-01-27T01:02:56.833Z,6.03
2019-01-27T01:05:29.562Z,5.96
2019-01-27T01:08:02.344Z,5.99
2019-01-27T01:10:36.239Z,5.96
2019-01-27T01:13:09.372Z,6.00
2019-01-27T01:15:42.274Z,6.02
2019-01-27T01:18:14.156Z,6.07
2019-01-27T01:20:46.864Z,6.08
2019-01-27T01:23:20.543Z,6.09
2019-01-27T01:25:52.278Z,6.06
2019-01-27T01:28:23.544Z,5.93
2019-01-27T01:30:55.781Z,5.96
2019-01-27T01:33:31.439Z,5.97
2019-01-27T01:36:03.946Z,5.95
2019-01-27T01:38:37.088Z,5.94
2019-01-27T01:41:10.042Z,5.92
2019-01-27T01:43:44.147Z,5.90
2019-01-27T01:46:18.127Z,5.94
2019-01-27T01:48:51.477Z,5.91
2019-01-27T01:51:24.964Z,5.92
2019-01-27T01:53:58.612Z,5.92
2019-01-27T01:56:31.138Z,5.94
2019-01-27T01:59:03.673Z,5.97
2019-01-27T02:01:36.149Z,5.99
2019-01-27T02:04:08.712Z,5.93
2019-01-27T02:06:41.729Z,5.99
2019-01-27T02:09:15.140Z,6.02
2019-01-27T02:11:47.819Z,5.96
2019-01-27T02:14:20.835Z,5.95
2019-01-27T02:16:53.872Z,5.93
2019-01-27T02:19:26.780Z,5.94
2019-01-27T02:22:00.359Z,5.93
2019-01-27T02:24:33.977Z,5.94
2019-01-27T02:27:07.045Z,5.99
2019-01-27T02:29:43.020Z,5.97
2019-01-27T02:32:16.391Z,5.92
2019-01-27T02:34:48.686Z,5.92
2019-01-27T02:37:21.387Z,5.97
2019-01-27T02:39:53.105Z,5.96
2019-01-27T02:42:31.248Z,5.93
2019-01-27T02:45:03.508Z,5.98
2019-01-27T02:47:35.607Z,5.99
2019-01-27T02:50:09.229Z,5.98
2019-01-27T02:52:51.461Z,5.98
2019-01-27T02:55:23.978Z,5.97
2019-01-27T02:57:55.214Z,5.89
2019-01-27T03:00:27.995Z,5.91
2019-01-27T03:02:59.328Z,5.83
2019-01-27T03:05:52.512Z,5.81
2019-01-27T03:08:24.310Z,5.83
2019-01-27T03:10:56.578Z,5.83
2019-01-27T03:13:29.119Z,5.85
2019-01-27T03:16:00.455Z,5.89
2019-01-27T03:18:33.491Z,5.91
2019-01-27T03:21:05.866Z,5.87
2019-01-27T03:23:38.486Z,5.97
2019-01-27T03:26:10.200Z,5.95
2019-01-27T03:28:43.594Z,5.98
2019-01-27T03:31:14.764Z,6.04
2019-01-27T03:33:46.329Z,5.93
2019-01-27T03:36:18.215Z,6.02
2019-01-27T03:38:50.663Z,6.01
2019-01-27T03:41:22.242Z,6.07
2019-01-27T03:43:53.738Z,6.03
2019-01-27T03:46:25.399Z,5.97
2019-01-27T03:48:57.927Z,6.00
2019-01-27T03:51:29.816Z,6.06
2019-01-27T03:54:02.588Z,6.03
2019-01-27T03:56:41.644Z,6.09
2019-01-27T03:59:13.486Z,6.15
2019-01-27T04:01:44.620Z,6.12
2019-01-27T04:04:16.123Z,6.16
2019-01-27T04:06:47.591Z,6.12
2019-01-27T04:09:19.689Z,6.14
2019-01-27T04:11:51.627Z,6.17
2019-01-27T04:14:23.635Z,6.25
2019-01-27T04:16:56.394Z,6.13
2019-01-27T04:19:28.296Z,6.24
2019-01-27T04:21:59.481Z,6.26
2019-01-27T04:24:32.384Z,6.15
2019-01-27T04:27:04.986Z,6.23
2019-01-27T04:29:37.106Z,6.18
2019-01-27T04:32:10.271Z,6.18
2019-01-27T04:34:42.535Z,6.13
2019-01-27T04:37:15.060Z,6.20
2019-01-27T04:39:47.599Z,6.09
2019-01-27T04:42:18.759Z,6.23
2019-01-27T04:44:50.685Z,6.21
2019-01-27T04:47:22.965Z,6.27
2019-01-27T04:49:55.457Z,6.14
2019-01-27T04:52:26.703Z,6.01
2019-01-27T04:54:58.351Z,6.15
2019-01-27T04:58:08.365Z,6.14
2019-01-27T05:00:49.018Z,6.19
2019-01-27T05:03:37.354Z,6.03
2019-01-27T05:06:09.120Z,6.09
2019-01-27T05:08:57.185Z,6.10
2019-01-27T05:11:30.059Z,6.09
2019-01-27T05:14:04.318Z,6.04
2019-01-27T05:16:38.821Z,6.04
2019-01-27T05:19:10.010Z,6.06
2019-01-27T05:21:41.577Z,6.09
2019-01-27T05:24:13.490Z,6.09
2019-01-27T05:26:48.223Z,6.05
2019-01-27T05:29:29.559Z,6.02
2019-01-27T05:32:07.231Z,6.06
2019-01-27T05:34:50.961Z,6.07
2019-01-27T05:37:38.443Z,6.05
2019-01-27T05:40:13.316Z,6.03
2019-01-27T05:42:45.283Z,6.10
2019-01-27T05:45:26.448Z,6.02
2019-01-27T05:47:58.114Z,5.99
2019-01-27T05:50:29.702Z,5.94
2019-01-27T05:53:01.198Z,5.95
2019-01-27T05:55:33.738Z,5.94
2019-01-27T05:58:05.210Z,5.96
2019-01-27T06:00:43.689Z,5.84
2019-01-27T06:03:16.053Z,5.88
2019-01-27T06:05:48.511Z,5.85
2019-01-27T06:08:23.005Z,5.91
2019-01-27T06:10:56.934Z,5.96
2019-01-27T06:13:29.646Z,5.92
2019-01-27T06:16:05.140Z,5.91
2019-01-27T06:18:36.288Z,5.84
2019-01-27T06:21:08.283Z,5.79
2019-01-27T06:23:39.899Z,5.69
2019-01-27T06:26:12.295Z,5.69
2019-01-27T06:28:43.832Z,5.75
2019-01-27T06:31:16.092Z,5.83
2019-01-27T06:34:06.256Z,5.84
2019-01-27T06:36:38.831Z,5.85
2019-01-27T06:39:11.960Z,5.81
2019-01-27T06:41:45.231Z,5.83
2019-01-27T06:44:18.678Z,5.79
2019-01-27T06:46:51.568Z,5.78
2019-01-27T06:49:23.887Z,5.80
2019-01-27T06:51:56.058Z,5.76
2019-01-27T06:54:28.114Z,5.74
2019-01-27T06:57:00.428Z,5.73
2019-01-27T06:59:46.850Z,5.72
2019-01-27T07:02:29.478Z,5.71
2019-01-27T07:05:07.082Z,5.61
2019-01-27T07:08:04.734Z,5.61
2019-01-27T07:10:54.668Z,5.60
2019-01-27T07:13:48.727Z,5.57
2019-01-27T07:16:42.430Z,5.53
2019-01-27T07:19:35.886Z,5.54
2019-01-27T07:22:25.831Z,5.54
2019-01-27T07:25:35.523Z,5.53
2019-01-27T07:28:44.749Z,5.52
2019-01-27T07:31:47.914Z,5.56
2019-01-27T07:34:38.139Z,5.59
2019-01-27T07:37:27.479Z,5.55
2019-01-27T07:40:17.047Z,5.50
2019-01-27T07:42:54.339Z,5.51
2019-01-27T07:45:34.416Z,5.54
2019-01-27T07:48:12.964Z,5.53
2019-01-27T07:51:09.781Z,5.54
2019-01-27T07:54:04.415Z,5.58
2019-01-27T07:56:53.580Z,5.58
2019-01-27T07:59:35.512Z,5.65
2019-01-27T08:02:26.496Z,5.59
2019-01-27T08:05:31.950Z,5.61
2019-01-27T08:08:10.588Z,5.58
2019-01-27T08:10:53.924Z,5.63
2019-01-27T08:13:42.593Z,5.56
2019-01-27T08:16:45.058Z,5.63
2019-01-27T08:19:41.787Z,5.72
2019-01-27T08:22:45.500Z,5.74
2019-01-27T08:25:35.141Z,5.77
2019-01-27T08:28:26.589Z,5.76
2019-01-27T08:31:21.391Z,5.82
2019-01-27T08:34:16.467Z,5.79
2019-01-27T08:37:01.022Z,5.82
2019-01-27T08:39:41.630Z,5.82
2019-01-27T08:42:37.745Z,5.85
2019-01-27T08:45:32.516Z,5.90
2019-01-27T08:48:03.994Z,5.84
2019-01-27T08:50:35.556Z,5.92
2019-01-27T08:53:08.021Z,5.97
2019-01-27T08:55:40.328Z,5.93
2019-01-27T08:58:13.690Z,5.94
2019-01-27T09:00:52.810Z,5.90
2019-01-27T09:03:59.331Z,5.95
2019-01-27T09:06:48.477Z,5.94
2019-01-27T09:09:48.259Z,5.99
2019-01-27T09:12:39.474Z,5.89
2019-01-27T09:15:31.572Z,5.92
2019-01-27T09:18:24.082Z,5.93
2019-01-27T09:21:09.422Z,5.88
2019-01-27T09:23:53.288Z,5.83
2019-01-27T09:26:52.962Z,5.95
2019-01-27T09:29:44.601Z,5.94
2019-01-27T09:32:34.953Z,6.04
2019-01-27T09:35:27.104Z,6.07
2019-01-27T09:38:15.101Z,6.06
2019-01-27T09:41:08.974Z,6.00
2019-01-27T09:43:49.150Z,6.16
2019-01-27T09:46:38.746Z,6.04
2019-01-27T09:49:28.208Z,6.08
2019-01-27T09:52:10.147Z,6.14
2019-01-27T09:54:59.211Z,6.15
2019-01-27T09:57:41.101Z,6.07
2019-01-27T10:00:41.133Z,6.15
2019-01-27T10:03:42.873Z,6.16
2019-01-27T10:06:36.542Z,6.14
2019-01-27T10:09:34.334Z,6.18
2019-01-27T10:12:18.457Z,6.15
2019-01-27T10:15:13.076Z,6.15
2019-01-27T10:18:19.732Z,6.19
2019-01-27T10:21:14.250Z,6.16
2019-01-27T10:23:53.739Z,6.14
2019-01-27T10:26:52.944Z,6.22
2019-01-27T10:29:37.197Z,6.23
2019-01-27T10:32:37.881Z,6.24
2019-01-27T10:35:18.107Z,6.19
2019-01-27T10:37:58.048Z,6.24
2019-01-27T10:40:45.106Z,6.26
2019-01-27T10:43:31.434Z,6.34
2019-01-27T10:46:18.235Z,6.31
2019-01-27T10:49:29.675Z,6.32
2019-01-27T10:52:19.930Z,6.32
2019-01-27T10:55:16.218Z,6.31
2019-01-27T10:58:16.016Z,6.34
2019-01-27T11:01:12.329Z,6.35
2019-01-27T11:04:02.565Z,6.39
2019-01-27T11:06:45.255Z,6.32
2019-01-27T11:12:56.858Z,6.41
2019-01-27T11:15:46.100Z,6.38
2019-01-27T11:18:40.591Z,6.40
2019-01-27T11:21:43.749Z,6.41
2019-01-27T11:24:34.380Z,6.42
2019-01-27T11:27:35.830Z,6.40
2019-01-27T11:30:27.780Z,6.34
2019-01-27T11:33:15.489Z,6.42
2019-01-27T11:35:57.815Z,6.40
2019-01-27T11:38:52.548Z,6.40
2019-01-27T11:41:39.004Z,6.46
2019-01-27T11:44:38.636Z,6.45
2019-01-27T11:47:32.009Z,6.49
2019-01-27T11:50:24.009Z,6.52
2019-01-27T11:53:02.212Z,6.46
2019-01-27T11:55:33.751Z,6.42
2019-01-27T11:58:05.932Z,6.50
2019-01-27T12:00:40.164Z,6.58
2019-01-27T12:03:11.700Z,6.62
2019-01-27T12:05:43.296Z,6.61
2019-01-27T12:08:15.925Z,6.57
2019-01-27T12:10:49.829Z,6.66
2019-01-27T12:13:22.717Z,6.63
2019-01-27T12:15:54.771Z,6.61
2019-01-27T12:18:25.970Z,6.54
2019-01-27T12:20:59.022Z,6.58
2019-01-27T12:23:31.849Z,6.66
2019-01-27T12:26:04.302Z,6.69
2019-01-27T12:28:38.884Z,6.63
2019-01-27T12:31:11.688Z,6.67
2019-01-27T12:33:43.944Z,6.70
2019-01-27T12:36:16.467Z,6.64
2019-01-27T12:38:51.052Z,6.69
2019-01-27T12:41:24.227Z,6.67
2019-01-27T12:43:58.646Z,6.66
2019-01-27T12:46:31.428Z,6.69
2019-01-27T12:49:04.370Z,6.69
2019-01-27T12:51:36.984Z,6.58
2019-01-27T12:54:10.472Z,6.74
2019-01-27T12:56:42.653Z,6.74
2019-01-27T12:59:18.029Z,6.74
2019-01-27T13:01:53.039Z,6.71
2019-01-27T13:04:25.292Z,6.76
2019-01-27T13:06:57.173Z,6.82
2019-01-27T13:09:32.315Z,6.88
2019-01-27T13:12:06.723Z,6.81
2019-01-27T13:14:41.942Z,6.86
2019-01-27T13:17:24.610Z,6.86
2019-01-27T13:19:59.509Z,6.93
2019-01-27T13:22:34.314Z,7.00
2019-01-27T13:25:10.734Z,6.98
2019-01-27T13:27:45.384Z,6.97
2019-01-27T13:30:20.044Z,6.88
2019-01-27T13:32:53.136Z,6.91
2019-01-27T13:35:26.734Z,6.98
2019-01-27T13:38:00.836Z,7.01
2019-01-27T13:40:34.779Z,7.02
2019-01-27T13:43:06.844Z,6.99
2019-01-27T13:45:41.742Z,6.95
2019-01-27T13:48:17.349Z,6.96
2019-01-27T13:50:52.420Z,6.91
2019-01-27T13:53:27.157Z,6.90
2019-01-27T13:56:02.258Z,6.87
2019-01-27T13:58:42.095Z,6.88
2019-01-27T14:01:17.809Z,6.85
2019-01-27T14:03:52.548Z,6.81
2019-01-27T14:06:29.052Z,6.76
2019-01-27T14:09:05.654Z,6.77
2019-01-27T14:11:42.429Z,6.82
2019-01-27T14:14:18.471Z,6.72
2019-01-27T14:16:59.374Z,6.82
2019-01-27T14:19:42.687Z,6.87
2019-01-27T14:22:18.525Z,6.85
2019-01-27T14:24:53.705Z,6.86
2019-01-27T14:27:29.109Z,6.90
2019-01-27T14:30:03.736Z,6.87
2019-01-27T14:32:38.186Z,6.89
2019-01-27T14:35:13.348Z,6.91
2019-01-27T14:37:47.600Z,6.93
2019-01-27T14:40:24.874Z,6.84
2019-01-27T14:43:00.881Z,6.86
2019-01-27T14:45:34.770Z,6.86
2019-01-27T14:48:10.094Z,6.82
2019-01-27T14:50:48.631Z,6.80
2019-01-27T14:53:23.522Z,6.74
2019-01-27T14:55:58.181Z,6.78
2019-01-27T14:58:33.979Z,6.80
2019-01-27T15:01:11.408Z,6.81
2019-01-27T15:03:47.365Z,6.88
2019-01-27T15:06:25.566Z,6.79
2019-01-27T15:08:59.900Z,6.85
2019-01-27T15:11:37.392Z,6.88
2019-01-27T15:14:09.116Z,6.76
2019-01-27T15:16:41.050Z,6.69
2019-01-27T15:19:13.015Z,6.78
2019-01-27T15:21:44.815Z,6.77
2019-01-27T15:24:21.899Z,6.86
2019-01-27T15:27:02.266Z,6.77
2019-01-27T15:29:36.987Z,6.86
2019-01-27T15:32:11.577Z,6.88
2019-01-27T15:34:51.153Z,6.88
2019-01-27T15:37:25.486Z,6.85
2019-01-27T15:40:00.424Z,6.95
2019-01-27T15:42:35.455Z,6.91
2019-01-27T15:45:14.688Z,6.92
2019-01-27T15:47:49.613Z,6.86
2019-01-27T15:50:23.705Z,6.84
2019-01-27T15:53:08.251Z,6.78
2019-01-27T15:55:40.445Z,6.73
2019-01-27T15:58:12.398Z,6.71
2019-01-27T16:00:44.555Z,6.82
2019-01-27T16:03:17.642Z,6.82
2019-01-27T16:05:50.008Z,6.90
2019-01-27T16:08:21.270Z,6.90
2019-01-27T16:10:53.868Z,6.85
2019-01-27T16:13:28.354Z,6.90
2019-01-27T16:16:02.591Z,6.86
2019-01-27T16:18:34.341Z,6.92
2019-01-27T16:21:06.762Z,6.89
2019-01-27T16:23:44.748Z,6.91
2019-01-27T16:26:16.772Z,6.87
2019-01-27T16:28:48.846Z,6.97
2019-01-27T16:31:51.192Z,6.94
2019-01-27T16:34:35.860Z,6.98
2019-01-27T16:37:14.660Z,6.88
2019-01-27T16:39:58.229Z,6.67
2019-01-27T16:42:30.569Z,6.87
2019-01-27T16:45:02.450Z,6.64
2019-01-27T16:47:34.359Z,6.74
2019-01-27T16:50:09.421Z,6.60
2019-01-27T16:52:45.613Z,6.73
2019-01-27T16:55:20.750Z,6.69
2019-01-27T16:57:55.485Z,6.57
2019-01-27T17:00:30.248Z,6.54
2019-01-27T17:03:02.379Z,6.56
2019-01-27T17:05:34.835Z,6.57
2019-01-27T17:08:07.330Z,6.47
2019-01-27T17:10:43.206Z,6.46
2019-01-27T17:13:28.445Z,6.42
2019-01-27T17:16:01.217Z,6.46
2019-01-27T17:18:34.165Z,6.44
2019-01-27T17:21:07.784Z,6.52
2019-01-27T17:23:45.713Z,6.40
2019-01-27T17:26:19.471Z,6.47
2019-01-27T17:28:52.656Z,6.40
2019-01-27T17:31:25.830Z,6.43
2019-01-27T17:33:59.446Z,6.42
2019-01-27T17:36:35.318Z,6.38
2019-01-27T17:39:16.774Z,6.41
2019-01-27T17:42:03.621Z,6.45
2019-01-27T17:44:36.533Z,6.49
2019-01-27T17:47:10.238Z,6.40
2019-01-27T17:49:55.512Z,6.36
2019-01-27T17:52:28.747Z,6.46
2019-01-27T17:55:01.393Z,6.35
2019-01-27T17:57:53.709Z,6.40
2019-01-27T18:00:44.343Z,6.42
2019-01-27T18:03:34.649Z,6.47
2019-01-27T18:06:22.421Z,6.44
2019-01-27T18:09:05.715Z,6.41
2019-01-27T18:11:49.394Z,6.38
2019-01-27T18:14:32.905Z,6.34
2019-01-27T18:17:05.723Z,6.32
2019-01-27T18:19:38.917Z,6.27
2019-01-27T18:22:12.530Z,6.28
2019-01-27T18:24:45.710Z,6.32
2019-01-27T18:27:19.475Z,6.33
2019-01-27T18:29:52.606Z,6.35
2019-01-27T18:32:25.722Z,6.31
2019-01-27T18:34:57.981Z,6.32
2019-01-27T18:37:30.631Z,6.32
2019-01-27T18:40:04.431Z,6.34
2019-01-27T18:42:38.978Z,6.28
2019-01-27T18:45:15.646Z,6.26
2019-01-27T18:47:49.901Z,6.27
2019-01-27T18:50:22.271Z,6.29
2019-01-27T18:53:10.025Z,6.19
2019-01-27T18:55:48.448Z,6.21
2019-01-27T18:58:41.091Z,6.20
2019-01-27T19:01:31.334Z,6.20
2019-01-27T19:04:24.153Z,6.31
2019-01-27T19:07:25.403Z,6.31
2019-01-27T19:10:19.007Z,6.34
2019-01-27T19:13:06.986Z,6.40
2019-01-27T19:16:13.420Z,6.31
2019-01-27T19:19:02.718Z,6.27
2019-01-27T19:21:56.698Z,6.20
2019-01-27T19:24:59.682Z,6.22
2019-01-27T19:27:48.849Z,6.27
2019-01-27T19:30:32.890Z,6.14
2019-01-27T19:33:25.282Z,6.12
2019-01-27T19:36:11.889Z,6.17
2019-01-27T19:39:06.848Z,6.18
2019-01-27T19:41:50.896Z,6.17
2019-01-27T19:44:46.830Z,6.13
2019-01-27T19:47:47.143Z,6.17
2019-01-27T19:50:54.342Z,6.12
2019-01-27T19:53:46.058Z,6.08
2019-01-27T19:56:47.205Z,6.10
2019-01-27T19:59:36.881Z,6.00
2019-01-27T20:02:21.776Z,6.07
2019-01-27T20:05:17.759Z,6.09
2019-01-27T20:08:09.113Z,6.12
2019-01-27T20:11:11.379Z,6.17
2019-01-27T20:14:04.035Z,6.04
2019-01-27T20:17:04.424Z,6.13
2019-01-27T20:19:44.473Z,6.10
2019-01-27T20:22:28.319Z,6.14
2019-01-27T20:25:35.760Z,6.14
2019-01-27T20:28:36.124Z,6.06
2019-01-27T20:31:40.219Z,6.05
2019-01-27T20:34:37.878Z,6.14
2019-01-27T20:37:35.503Z,6.05
2019-01-27T20:40:22.618Z,6.03
2019-01-27T20:43:13.811Z,6.04
2019-01-27T20:45:55.436Z,5.98
2019-01-27T20:48:55.250Z,6.07
2019-01-27T20:51:54.126Z,6.03
2019-01-27T20:54:46.625Z,6.08
2019-01-27T20:57:38.377Z,6.04
2019-01-27T21:00:34.302Z,6.01
2019-01-27T21:03:32.550Z,5.91
2019-01-27T21:06:13.174Z,5.92
2019-01-27T21:09:12.651Z,5.89
2019-01-27T21:12:02.703Z,5.90
2019-01-27T21:14:54.389Z,5.85
2019-01-27T21:17:35.212Z,5.81
2019-01-27T21:20:15.815Z,5.72
2019-01-27T21:22:48.622Z,5.72
2019-01-27T21:25:21.234Z,5.78
2019-01-27T21:27:56.555Z,5.64
2019-01-27T21:30:29.494Z,5.67
2019-01-27T21:33:02.430Z,5.57
2019-01-27T21:35:36.329Z,5.61
2019-01-27T21:38:13.852Z,5.58
2019-01-27T21:40:47.770Z,5.63
2019-01-27T21:43:21.855Z,5.52
2019-01-27T21:45:54.780Z,5.55
2019-01-27T21:48:30.079Z,5.44
2019-01-27T21:51:06.287Z,5.37
2019-01-27T21:53:42.670Z,5.39
2019-01-27T21:56:19.311Z,5.31
2019-01-27T21:58:52.221Z,5.36
2019-01-27T22:01:27.300Z,5.27
2019-01-27T22:04:04.599Z,5.30
2019-01-27T22:06:48.048Z,5.25
2019-01-27T22:09:27.074Z,5.25
2019-01-27T22:12:04.190Z,5.33
2019-01-27T22:14:37.019Z,5.34
2019-01-27T22:17:12.323Z,5.28
2019-01-27T22:19:46.902Z,5.24
2019-01-27T22:22:59.910Z,5.32
2019-01-27T22:25:35.558Z,5.18
2019-01-27T22:28:09.416Z,5.18
2019-01-27T22:30:48.929Z,5.00
2019-01-27T22:33:24.319Z,5.22
2019-01-27T22:35:59.720Z,5.17
2019-01-27T22:38:35.089Z,5.10
2019-01-27T22:41:10.795Z,5.13
2019-01-27T22:43:46.820Z,5.08
2019-01-27T22:46:22.414Z,5.04
2019-01-27T22:48:58.219Z,5.04
2019-01-27T22:51:33.406Z,5.09
2019-01-27T22:54:10.641Z,5.06
2019-01-27T22:56:42.801Z,5.08
2019-01-27T22:59:18.043Z,4.91
2019-01-27T23:02:01.237Z,4.91
2019-01-27T23:04:38.688Z,4.85
2019-01-27T23:07:13.562Z,4.84
2019-01-27T23:09:49.693Z,4.86
2019-01-27T23:12:25.746Z,4.82
2019-01-27T23:15:02.993Z,4.79
2019-01-27T23:17:40.397Z,4.87
2019-01-27T23:20:13.897Z,4.69
2019-01-27T23:22:45.843Z,4.70
2019-01-27T23:25:18.495Z,4.60
2019-01-27T23:27:52.963Z,4.56
2019-01-27T23:30:28.946Z,4.51
2019-01-27T23:33:05.366Z,4.49
2019-01-27T23:35:37.121Z,4.53
2019-01-27T23:38:09.991Z,4.36
2019-01-27T23:40:41.867Z,4.28
2019-01-27T23:43:13.808Z,4.41
2019-01-27T23:45:46.462Z,4.19
2019-01-27T23:48:51.519Z,4.31
2019-01-27T23:51:24.263Z,4.16
2019-01-27T23:53:55.587Z,4.19
2019-01-27T23:56:27.575Z,4.02
2019-01-27T23:59:02.823Z,4.07
